sensor_id;sensor_type;location;lat;lon;timestamp;P1;durP1;ratioP1;P2;durP2;ratioP2
30307;SDS011;17114;52.314;8.910;2023-03-03T00:01:32;50.58;;;24.02;;
30307;SDS011;17114;52.314;8.910;2023-03-03T00:03:59;49.55;;;23.73;;
30307;SDS011;17114;52.314;8.910;2023-03-03T00:06:26;50.10;;;23.17;;
30307;SDS011;17114;52.314;8.910;2023-03-03T00:08:55;51.30;;;23.58;;
30307;SDS011;17114;52.314;8.910;2023-03-03T00:11:22;54.10;;;24.92;;
30307;SDS011;17114;52.314;8.910;2023-03-03T00:13:53;52.53;;;25.10;;
30307;SDS011;17114;52.314;8.910;2023-03-03T00:19:00;46.95;;;21.83;;
30307;SDS011;17114;52.314;8.910;2023-03-03T00:21:31;45.90;;;22.10;;
30307;SDS011;17114;52.314;8.910;2023-03-03T00:24:14;47.13;;;22.08;;
30307;SDS011;17114;52.314;8.910;2023-03-03T00:26:45;45.15;;;22.83;;
30307;SDS011;17114;52.314;8.910;2023-03-03T00:31:50;60.78;;;24.80;;
30307;SDS011;17114;52.314;8.910;2023-03-03T00:34:26;68.10;;;26.83;;
30307;SDS011;17114;52.314;8.910;2023-03-03T00:36:56;66.60;;;26.70;;
30307;SDS011;17114;52.314;8.910;2023-03-03T00:39:34;66.75;;;26.85;;
30307;SDS011;17114;52.314;8.910;2023-03-03T00:42:12;65.15;;;27.10;;
30307;SDS011;17114;52.314;8.910;2023-03-03T00:52:33;72.47;;;26.58;;
30307;SDS011;17114;52.314;8.910;2023-03-03T00:55:03;73.15;;;27.08;;
30307;SDS011;17114;52.314;8.910;2023-03-03T00:57:31;69.10;;;26.80;;
30307;SDS011;17114;52.314;8.910;2023-03-03T00:59:57;75.93;;;28.38;;
30307;SDS011;17114;52.314;8.910;2023-03-03T01:02:24;82.38;;;27.95;;
30307;SDS011;17114;52.314;8.910;2023-03-03T01:04:52;86.22;;;28.40;;
30307;SDS011;17114;52.314;8.910;2023-03-03T01:07:22;89.22;;;29.73;;
30307;SDS011;17114;52.314;8.910;2023-03-03T01:09:49;85.43;;;30.10;;
30307;SDS011;17114;52.314;8.910;2023-03-03T01:12:16;88.97;;;29.63;;
30307;SDS011;17114;52.314;8.910;2023-03-03T01:14:43;101.05;;;33.83;;
30307;SDS011;17114;52.314;8.910;2023-03-03T01:17:10;107.45;;;32.50;;
30307;SDS011;17114;52.314;8.910;2023-03-03T01:19:37;113.47;;;35.63;;
30307;SDS011;17114;52.314;8.910;2023-03-03T01:22:04;118.03;;;35.88;;
30307;SDS011;17114;52.314;8.910;2023-03-03T01:24:31;120.68;;;35.70;;
30307;SDS011;17114;52.314;8.910;2023-03-03T01:26:58;111.05;;;35.38;;
30307;SDS011;17114;52.314;8.910;2023-03-03T01:29:25;127.03;;;35.20;;
30307;SDS011;17114;52.314;8.910;2023-03-03T01:31:52;110.55;;;35.08;;
30307;SDS011;17114;52.314;8.910;2023-03-03T01:34:19;124.82;;;36.15;;
30307;SDS011;17114;52.314;8.910;2023-03-03T01:36:46;132.90;;;35.95;;
30307;SDS011;17114;52.314;8.910;2023-03-03T01:39:13;121.35;;;34.88;;
30307;SDS011;17114;52.314;8.910;2023-03-03T01:41:40;124.57;;;36.42;;
30307;SDS011;17114;52.314;8.910;2023-03-03T01:44:10;131.00;;;36.55;;
30307;SDS011;17114;52.314;8.910;2023-03-03T01:46:53;135.57;;;36.30;;
30307;SDS011;17114;52.314;8.910;2023-03-03T01:49:28;136.90;;;35.22;;
30307;SDS011;17114;52.314;8.910;2023-03-03T01:52:00;134.02;;;35.97;;
30307;SDS011;17114;52.314;8.910;2023-03-03T01:54:38;101.05;;;26.02;;
30307;SDS011;17114;52.314;8.910;2023-03-03T01:57:14;119.20;;;31.60;;
30307;SDS011;17114;52.314;8.910;2023-03-03T01:59:47;125.90;;;34.15;;
30307;SDS011;17114;52.314;8.910;2023-03-03T02:02:16;116.70;;;31.67;;
30307;SDS011;17114;52.314;8.910;2023-03-03T02:04:43;123.88;;;33.88;;
30307;SDS011;17114;52.314;8.910;2023-03-03T02:07:11;110.68;;;31.33;;
30307;SDS011;17114;52.314;8.910;2023-03-03T02:12:16;118.20;;;32.83;;
30307;SDS011;17114;52.314;8.910;2023-03-03T02:14:45;115.55;;;32.78;;
30307;SDS011;17114;52.314;8.910;2023-03-03T02:17:12;113.25;;;32.40;;
30307;SDS011;17114;52.314;8.910;2023-03-03T02:22:34;110.03;;;31.73;;
30307;SDS011;17114;52.314;8.910;2023-03-03T02:25:13;105.65;;;33.28;;
30307;SDS011;17114;52.314;8.910;2023-03-03T02:27:50;112.03;;;32.58;;
30307;SDS011;17114;52.314;8.910;2023-03-03T02:30:19;108.15;;;32.33;;
30307;SDS011;17114;52.314;8.910;2023-03-03T02:32:46;115.03;;;32.65;;
30307;SDS011;17114;52.314;8.910;2023-03-03T02:35:30;105.40;;;33.33;;
30307;SDS011;17114;52.314;8.910;2023-03-03T02:38:14;109.10;;;31.70;;
30307;SDS011;17114;52.314;8.910;2023-03-03T02:40:46;112.35;;;31.80;;
30307;SDS011;17114;52.314;8.910;2023-03-03T02:43:22;97.00;;;29.95;;
30307;SDS011;17114;52.314;8.910;2023-03-03T02:45:54;96.85;;;30.25;;
30307;SDS011;17114;52.314;8.910;2023-03-03T02:48:21;97.35;;;30.45;;
30307;SDS011;17114;52.314;8.910;2023-03-03T02:50:48;95.57;;;28.55;;
30307;SDS011;17114;52.314;8.910;2023-03-03T02:53:15;96.28;;;28.77;;
30307;SDS011;17114;52.314;8.910;2023-03-03T02:55:42;101.63;;;30.58;;
30307;SDS011;17114;52.314;8.910;2023-03-03T02:58:09;101.47;;;30.52;;
30307;SDS011;17114;52.314;8.910;2023-03-03T03:00:36;99.95;;;30.33;;
30307;SDS011;17114;52.314;8.910;2023-03-03T03:03:03;99.80;;;29.77;;
30307;SDS011;17114;52.314;8.910;2023-03-03T03:05:30;108.50;;;32.55;;
30307;SDS011;17114;52.314;8.910;2023-03-03T03:07:56;111.90;;;31.83;;
30307;SDS011;17114;52.314;8.910;2023-03-03T03:10:23;121.05;;;33.20;;
30307;SDS011;17114;52.314;8.910;2023-03-03T03:12:51;116.13;;;32.30;;
30307;SDS011;17114;52.314;8.910;2023-03-03T03:15:18;115.82;;;32.85;;
30307;SDS011;17114;52.314;8.910;2023-03-03T03:17:44;112.63;;;31.83;;
30307;SDS011;17114;52.314;8.910;2023-03-03T03:20:11;124.80;;;34.13;;
30307;SDS011;17114;52.314;8.910;2023-03-03T03:22:38;121.47;;;34.90;;
30307;SDS011;17114;52.314;8.910;2023-03-03T03:25:05;128.48;;;35.10;;
30307;SDS011;17114;52.314;8.910;2023-03-03T03:27:33;121.40;;;34.58;;
30307;SDS011;17114;52.314;8.910;2023-03-03T03:29:59;124.72;;;35.40;;
30307;SDS011;17114;52.314;8.910;2023-03-03T03:32:26;137.50;;;38.47;;
30307;SDS011;17114;52.314;8.910;2023-03-03T03:34:53;134.20;;;36.33;;
30307;SDS011;17114;52.314;8.910;2023-03-03T03:37:20;139.75;;;38.22;;
30307;SDS011;17114;52.314;8.910;2023-03-03T03:39:47;123.20;;;36.95;;
30307;SDS011;17114;52.314;8.910;2023-03-03T03:42:14;124.53;;;35.65;;
30307;SDS011;17114;52.314;8.910;2023-03-03T03:44:41;127.25;;;34.63;;
30307;SDS011;17114;52.314;8.910;2023-03-03T03:47:07;117.22;;;33.85;;
30307;SDS011;17114;52.314;8.910;2023-03-03T03:49:34;124.10;;;35.58;;
30307;SDS011;17114;52.314;8.910;2023-03-03T03:52:01;126.03;;;32.92;;
30307;SDS011;17114;52.314;8.910;2023-03-03T03:54:28;114.05;;;32.58;;
30307;SDS011;17114;52.314;8.910;2023-03-03T03:56:55;112.15;;;30.40;;
30307;SDS011;17114;52.314;8.910;2023-03-03T03:59:22;97.63;;;29.00;;
30307;SDS011;17114;52.314;8.910;2023-03-03T04:01:49;102.32;;;29.17;;
30307;SDS011;17114;52.314;8.910;2023-03-03T04:04:16;104.28;;;29.13;;
30307;SDS011;17114;52.314;8.910;2023-03-03T04:06:43;94.20;;;28.33;;
30307;SDS011;17114;52.314;8.910;2023-03-03T04:09:12;104.93;;;30.50;;
30307;SDS011;17114;52.314;8.910;2023-03-03T04:11:39;113.65;;;32.10;;
30307;SDS011;17114;52.314;8.910;2023-03-03T04:14:06;112.00;;;31.83;;
30307;SDS011;17114;52.314;8.910;2023-03-03T04:16:33;122.22;;;32.00;;
30307;SDS011;17114;52.314;8.910;2023-03-03T04:18:59;108.97;;;31.38;;
30307;SDS011;17114;52.314;8.910;2023-03-03T04:21:26;106.40;;;31.25;;
30307;SDS011;17114;52.314;8.910;2023-03-03T04:23:53;108.82;;;33.58;;
30307;SDS011;17114;52.314;8.910;2023-03-03T04:26:20;118.97;;;33.58;;
30307;SDS011;17114;52.314;8.910;2023-03-03T04:28:47;112.18;;;32.58;;
30307;SDS011;17114;52.314;8.910;2023-03-03T04:31:13;111.05;;;32.72;;
30307;SDS011;17114;52.314;8.910;2023-03-03T04:33:40;123.00;;;33.85;;
30307;SDS011;17114;52.314;8.910;2023-03-03T04:36:07;119.07;;;33.15;;
30307;SDS011;17114;52.314;8.910;2023-03-03T04:38:34;97.95;;;30.60;;
30307;SDS011;17114;52.314;8.910;2023-03-03T04:41:01;117.93;;;33.80;;
30307;SDS011;17114;52.314;8.910;2023-03-03T04:43:27;101.18;;;30.00;;
30307;SDS011;17114;52.314;8.910;2023-03-03T04:45:54;99.50;;;30.92;;
30307;SDS011;17114;52.314;8.910;2023-03-03T04:48:21;100.65;;;29.17;;
30307;SDS011;17114;52.314;8.910;2023-03-03T04:50:48;98.93;;;30.05;;
30307;SDS011;17114;52.314;8.910;2023-03-03T04:53:15;102.80;;;30.30;;
30307;SDS011;17114;52.314;8.910;2023-03-03T04:55:42;103.05;;;30.83;;
30307;SDS011;17114;52.314;8.910;2023-03-03T04:58:09;101.18;;;29.63;;
30307;SDS011;17114;52.314;8.910;2023-03-03T05:00:36;109.70;;;31.77;;
30307;SDS011;17114;52.314;8.910;2023-03-03T05:03:03;103.28;;;31.15;;
30307;SDS011;17114;52.314;8.910;2023-03-03T05:05:33;102.65;;;32.35;;
30307;SDS011;17114;52.314;8.910;2023-03-03T05:08:00;100.05;;;30.42;;
30307;SDS011;17114;52.314;8.910;2023-03-03T05:10:27;101.47;;;30.73;;
30307;SDS011;17114;52.314;8.910;2023-03-03T05:12:54;94.82;;;28.73;;
30307;SDS011;17114;52.314;8.910;2023-03-03T05:15:21;89.82;;;26.52;;
30307;SDS011;17114;52.314;8.910;2023-03-03T05:17:48;100.57;;;28.38;;
30307;SDS011;17114;52.314;8.910;2023-03-03T05:20:18;100.88;;;29.52;;
30307;SDS011;17114;52.314;8.910;2023-03-03T05:22:45;99.38;;;29.05;;
30307;SDS011;17114;52.314;8.910;2023-03-03T05:25:12;98.60;;;29.73;;
30307;SDS011;17114;52.314;8.910;2023-03-03T05:27:39;101.25;;;30.27;;
30307;SDS011;17114;52.314;8.910;2023-03-03T05:30:06;100.85;;;28.45;;
30307;SDS011;17114;52.314;8.910;2023-03-03T05:32:34;99.90;;;27.83;;
30307;SDS011;17114;52.314;8.910;2023-03-03T05:35:01;101.80;;;28.15;;
30307;SDS011;17114;52.314;8.910;2023-03-03T05:37:29;100.53;;;29.13;;
30307;SDS011;17114;52.314;8.910;2023-03-03T05:39:56;93.70;;;28.40;;
30307;SDS011;17114;52.314;8.910;2023-03-03T05:42:22;87.10;;;26.63;;
30307;SDS011;17114;52.314;8.910;2023-03-03T05:44:49;101.00;;;28.45;;
30307;SDS011;17114;52.314;8.910;2023-03-03T05:47:16;98.63;;;27.75;;
30307;SDS011;17114;52.314;8.910;2023-03-03T05:49:43;91.63;;;26.63;;
30307;SDS011;17114;52.314;8.910;2023-03-03T05:52:10;100.60;;;27.75;;
30307;SDS011;17114;52.314;8.910;2023-03-03T05:54:37;95.05;;;27.27;;
30307;SDS011;17114;52.314;8.910;2023-03-03T05:57:06;107.47;;;30.55;;
30307;SDS011;17114;52.314;8.910;2023-03-03T05:59:36;99.57;;;27.13;;
30307;SDS011;17114;52.314;8.910;2023-03-03T06:02:03;98.40;;;29.15;;
30307;SDS011;17114;52.314;8.910;2023-03-03T06:04:30;102.13;;;28.13;;
30307;SDS011;17114;52.314;8.910;2023-03-03T06:06:57;98.03;;;27.73;;
30307;SDS011;17114;52.314;8.910;2023-03-03T06:09:24;96.72;;;26.63;;
30307;SDS011;17114;52.314;8.910;2023-03-03T06:11:51;97.53;;;25.63;;
30307;SDS011;17114;52.314;8.910;2023-03-03T06:14:21;96.22;;;26.27;;
30307;SDS011;17114;52.314;8.910;2023-03-03T06:16:52;91.30;;;27.52;;
30307;SDS011;17114;52.314;8.910;2023-03-03T06:19:18;98.93;;;28.13;;
30307;SDS011;17114;52.314;8.910;2023-03-03T06:21:45;102.78;;;28.05;;
30307;SDS011;17114;52.314;8.910;2023-03-03T06:24:12;103.82;;;27.08;;
30307;SDS011;17114;52.314;8.910;2023-03-03T06:26:39;92.15;;;26.17;;
30307;SDS011;17114;52.314;8.910;2023-03-03T06:29:06;89.45;;;26.05;;
30307;SDS011;17114;52.314;8.910;2023-03-03T06:31:33;98.65;;;26.52;;
30307;SDS011;17114;52.314;8.910;2023-03-03T06:34:01;95.78;;;27.63;;
30307;SDS011;17114;52.314;8.910;2023-03-03T06:36:28;102.70;;;27.88;;
30307;SDS011;17114;52.314;8.910;2023-03-03T06:38:54;98.75;;;27.48;;
30307;SDS011;17114;52.314;8.910;2023-03-03T06:41:21;89.88;;;26.83;;
30307;SDS011;17114;52.314;8.910;2023-03-03T06:43:48;95.20;;;27.38;;
30307;SDS011;17114;52.314;8.910;2023-03-03T06:46:15;104.90;;;27.60;;
30307;SDS011;17114;52.314;8.910;2023-03-03T06:48:42;100.15;;;29.08;;
30307;SDS011;17114;52.314;8.910;2023-03-03T06:51:17;107.43;;;28.60;;
30307;SDS011;17114;52.314;8.910;2023-03-03T06:53:53;95.05;;;25.50;;
30307;SDS011;17114;52.314;8.910;2023-03-03T06:56:24;98.30;;;27.80;;
30307;SDS011;17114;52.314;8.910;2023-03-03T06:58:55;106.05;;;28.77;;
30307;SDS011;17114;52.314;8.910;2023-03-03T07:01:23;103.70;;;28.23;;
30307;SDS011;17114;52.314;8.910;2023-03-03T07:03:50;107.35;;;30.08;;
30307;SDS011;17114;52.314;8.910;2023-03-03T07:06:22;102.68;;;28.38;;
30307;SDS011;17114;52.314;8.910;2023-03-03T07:08:51;102.13;;;28.30;;
30307;SDS011;17114;52.314;8.910;2023-03-03T07:11:19;106.30;;;29.08;;
30307;SDS011;17114;52.314;8.910;2023-03-03T07:13:51;106.85;;;29.88;;
30307;SDS011;17114;52.314;8.910;2023-03-03T07:16:24;101.75;;;30.00;;
30307;SDS011;17114;52.314;8.910;2023-03-03T07:18:53;108.20;;;29.95;;
30307;SDS011;17114;52.314;8.910;2023-03-03T07:21:22;87.80;;;26.27;;
30307;SDS011;17114;52.314;8.910;2023-03-03T07:23:56;70.40;;;20.50;;
30307;SDS011;17114;52.314;8.910;2023-03-03T07:26:24;91.93;;;27.73;;
30307;SDS011;17114;52.314;8.910;2023-03-03T07:28:55;88.70;;;26.67;;
30307;SDS011;17114;52.314;8.910;2023-03-03T07:33:56;97.63;;;26.92;;
30307;SDS011;17114;52.314;8.910;2023-03-03T07:36:26;87.50;;;26.67;;
30307;SDS011;17114;52.314;8.910;2023-03-03T07:39:01;91.35;;;27.77;;
30307;SDS011;17114;52.314;8.910;2023-03-03T07:41:37;93.30;;;27.50;;
30307;SDS011;17114;52.314;8.910;2023-03-03T07:44:05;85.03;;;26.85;;
30307;SDS011;17114;52.314;8.910;2023-03-03T07:46:48;95.13;;;28.50;;
30307;SDS011;17114;52.314;8.910;2023-03-03T07:49:23;98.50;;;28.45;;
30307;SDS011;17114;52.314;8.910;2023-03-03T07:52:00;92.25;;;27.50;;
30307;SDS011;17114;52.314;8.910;2023-03-03T07:54:42;85.57;;;26.63;;
30307;SDS011;17114;52.314;8.910;2023-03-03T08:05:22;88.38;;;27.95;;
30307;SDS011;17114;52.314;8.910;2023-03-03T08:08:05;85.82;;;28.40;;
30307;SDS011;17114;52.314;8.910;2023-03-03T08:13:18;91.15;;;28.85;;
30307;SDS011;17114;52.314;8.910;2023-03-03T08:18:34;96.43;;;26.70;;
30307;SDS011;17114;52.314;8.910;2023-03-03T08:21:11;93.97;;;28.83;;
30307;SDS011;17114;52.314;8.910;2023-03-03T08:23:40;105.95;;;31.33;;
30307;SDS011;17114;52.314;8.910;2023-03-03T08:26:07;103.93;;;32.35;;
30307;SDS011;17114;52.314;8.910;2023-03-03T08:28:34;94.68;;;28.27;;
30307;SDS011;17114;52.314;8.910;2023-03-03T08:31:01;96.93;;;30.77;;
30307;SDS011;17114;52.314;8.910;2023-03-03T08:33:47;83.72;;;25.98;;
30307;SDS011;17114;52.314;8.910;2023-03-03T08:36:14;87.40;;;27.45;;
30307;SDS011;17114;52.314;8.910;2023-03-03T08:38:41;93.70;;;28.02;;
30307;SDS011;17114;52.314;8.910;2023-03-03T08:41:08;87.07;;;27.58;;
30307;SDS011;17114;52.314;8.910;2023-03-03T08:43:35;82.05;;;27.10;;
30307;SDS011;17114;52.314;8.910;2023-03-03T08:46:02;87.65;;;26.98;;
30307;SDS011;17114;52.314;8.910;2023-03-03T08:48:31;90.35;;;27.02;;
30307;SDS011;17114;52.314;8.910;2023-03-03T08:50:59;92.80;;;29.88;;
30307;SDS011;17114;52.314;8.910;2023-03-03T08:53:26;82.72;;;28.50;;
30307;SDS011;17114;52.314;8.910;2023-03-03T08:55:54;87.97;;;28.40;;
30307;SDS011;17114;52.314;8.910;2023-03-03T08:58:21;85.50;;;29.90;;
30307;SDS011;17114;52.314;8.910;2023-03-03T09:01:00;92.45;;;29.00;;
30307;SDS011;17114;52.314;8.910;2023-03-03T09:03:30;82.13;;;27.85;;
30307;SDS011;17114;52.314;8.910;2023-03-03T09:05:57;89.15;;;30.13;;
30307;SDS011;17114;52.314;8.910;2023-03-03T09:08:25;90.05;;;29.23;;
30307;SDS011;17114;52.314;8.910;2023-03-03T09:10:52;94.80;;;30.60;;
30307;SDS011;17114;52.314;8.910;2023-03-03T09:13:19;89.63;;;29.80;;
30307;SDS011;17114;52.314;8.910;2023-03-03T09:15:47;99.97;;;32.05;;
30307;SDS011;17114;52.314;8.910;2023-03-03T09:18:25;89.97;;;30.23;;
30307;SDS011;17114;52.314;8.910;2023-03-03T09:21:15;95.30;;;29.77;;
30307;SDS011;17114;52.314;8.910;2023-03-03T09:23:53;89.75;;;29.45;;
30307;SDS011;17114;52.314;8.910;2023-03-03T09:26:24;93.32;;;31.45;;
30307;SDS011;17114;52.314;8.910;2023-03-03T09:28:54;95.70;;;31.88;;
30307;SDS011;17114;52.314;8.910;2023-03-03T09:32:01;96.15;;;29.77;;
30307;SDS011;17114;52.314;8.910;2023-03-03T09:34:50;89.45;;;29.75;;
30307;SDS011;17114;52.314;8.910;2023-03-03T09:40:06;91.63;;;30.88;;
30307;SDS011;17114;52.314;8.910;2023-03-03T09:43:08;93.93;;;31.30;;
30307;SDS011;17114;52.314;8.910;2023-03-03T09:51:11;91.50;;;30.85;;
30307;SDS011;17114;52.314;8.910;2023-03-03T09:56:36;97.43;;;29.10;;
30307;SDS011;17114;52.314;8.910;2023-03-03T10:09:57;92.00;;;31.25;;
30307;SDS011;17114;52.314;8.910;2023-03-03T10:15:31;97.15;;;30.88;;
30307;SDS011;17114;52.314;8.910;2023-03-03T10:32:15;115.63;;;36.30;;
30307;SDS011;17114;52.314;8.910;2023-03-03T10:35:17;113.20;;;33.08;;
30307;SDS011;17114;52.314;8.910;2023-03-03T10:38:07;108.57;;;32.83;;
30307;SDS011;17114;52.314;8.910;2023-03-03T10:41:18;97.55;;;32.58;;
30307;SDS011;17114;52.314;8.910;2023-03-03T10:52:55;82.03;;;28.70;;
30307;SDS011;17114;52.314;8.910;2023-03-03T10:58:32;71.53;;;24.42;;
30307;SDS011;17114;52.314;8.910;2023-03-03T11:07:25;72.35;;;25.45;;
30307;SDS011;17114;52.314;8.910;2023-03-03T11:10:13;61.10;;;22.40;;
30307;SDS011;17114;52.314;8.910;2023-03-03T11:21:25;65.70;;;23.88;;
30307;SDS011;17114;52.314;8.910;2023-03-03T11:24:01;58.83;;;22.88;;
30307;SDS011;17114;52.314;8.910;2023-03-03T11:29:44;61.90;;;23.50;;
30307;SDS011;17114;52.314;8.910;2023-03-03T11:38:04;56.80;;;22.30;;
30307;SDS011;17114;52.314;8.910;2023-03-03T11:40:47;59.35;;;23.15;;
30307;SDS011;17114;52.314;8.910;2023-03-03T11:43:21;56.25;;;22.98;;
30307;SDS011;17114;52.314;8.910;2023-03-03T11:46:04;54.33;;;22.17;;
30307;SDS011;17114;52.314;8.910;2023-03-03T11:54:43;51.28;;;20.10;;
30307;SDS011;17114;52.314;8.910;2023-03-03T11:57:34;52.22;;;20.13;;
30307;SDS011;17114;52.314;8.910;2023-03-03T12:10:53;55.30;;;22.05;;
30307;SDS011;17114;52.314;8.910;2023-03-03T12:18:49;51.80;;;19.90;;
30307;SDS011;17114;52.314;8.910;2023-03-03T12:32:54;43.80;;;17.60;;
30307;SDS011;17114;52.314;8.910;2023-03-03T12:47:03;41.10;;;16.95;;
30307;SDS011;17114;52.314;8.910;2023-03-03T12:55:22;43.63;;;17.48;;
30307;SDS011;17114;52.314;8.910;2023-03-03T13:01:07;37.28;;;16.10;;
30307;SDS011;17114;52.314;8.910;2023-03-03T13:04:02;44.22;;;17.33;;
30307;SDS011;17114;52.314;8.910;2023-03-03T13:19:58;52.83;;;18.42;;
30307;SDS011;17114;52.314;8.910;2023-03-03T13:25:18;47.08;;;18.50;;
30307;SDS011;17114;52.314;8.910;2023-03-03T13:28:15;51.65;;;18.17;;
30307;SDS011;17114;52.314;8.910;2023-03-03T13:30:49;51.33;;;18.58;;
30307;SDS011;17114;52.314;8.910;2023-03-03T13:33:24;38.00;;;14.70;;
30307;SDS011;17114;52.314;8.910;2023-03-03T13:35:57;54.63;;;19.10;;
30307;SDS011;17114;52.314;8.910;2023-03-03T13:41:00;52.60;;;19.08;;
30307;SDS011;17114;52.314;8.910;2023-03-03T13:43:38;55.25;;;19.90;;
30307;SDS011;17114;52.314;8.910;2023-03-03T13:51:59;58.45;;;19.65;;
30307;SDS011;17114;52.314;8.910;2023-03-03T13:57:09;53.53;;;19.92;;
30307;SDS011;17114;52.314;8.910;2023-03-03T14:00:06;57.22;;;21.02;;
30307;SDS011;17114;52.314;8.910;2023-03-03T14:05:40;62.15;;;20.80;;
30307;SDS011;17114;52.314;8.910;2023-03-03T14:11:28;61.20;;;22.25;;
30307;SDS011;17114;52.314;8.910;2023-03-03T14:17:08;64.18;;;22.13;;
30307;SDS011;17114;52.314;8.910;2023-03-03T14:22:21;76.18;;;26.02;;
30307;SDS011;17114;52.314;8.910;2023-03-03T14:25:13;72.32;;;24.67;;
30307;SDS011;17114;52.314;8.910;2023-03-03T14:35:37;75.07;;;24.27;;
30307;SDS011;17114;52.314;8.910;2023-03-03T14:40:40;46.80;;;17.47;;
30307;SDS011;17114;52.314;8.910;2023-03-03T14:43:32;73.15;;;25.10;;
30307;SDS011;17114;52.314;8.910;2023-03-03T14:46:34;70.65;;;24.60;;
30307;SDS011;17114;52.314;8.910;2023-03-03T14:49:04;74.25;;;24.85;;
30307;SDS011;17114;52.314;8.910;2023-03-03T14:54:26;67.47;;;25.42;;
30307;SDS011;17114;52.314;8.910;2023-03-03T14:56:57;68.05;;;25.58;;
30307;SDS011;17114;52.314;8.910;2023-03-03T15:00:07;70.78;;;24.40;;
30307;SDS011;17114;52.314;8.910;2023-03-03T15:02:54;69.00;;;22.95;;
30307;SDS011;17114;52.314;8.910;2023-03-03T15:05:54;79.88;;;23.48;;
30307;SDS011;17114;52.314;8.910;2023-03-03T15:08:34;74.05;;;23.98;;
30307;SDS011;17114;52.314;8.910;2023-03-03T15:11:12;69.85;;;23.70;;
30307;SDS011;17114;52.314;8.910;2023-03-03T15:13:43;69.65;;;24.17;;
30307;SDS011;17114;52.314;8.910;2023-03-03T15:16:15;67.07;;;23.58;;
30307;SDS011;17114;52.314;8.910;2023-03-03T15:21:28;62.13;;;21.10;;
30307;SDS011;17114;52.314;8.910;2023-03-03T15:29:37;66.68;;;23.48;;
30307;SDS011;17114;52.314;8.910;2023-03-03T15:32:16;60.95;;;22.80;;
30307;SDS011;17114;52.314;8.910;2023-03-03T15:34:56;62.83;;;23.65;;
30307;SDS011;17114;52.314;8.910;2023-03-03T15:40:26;65.00;;;22.27;;
30307;SDS011;17114;52.314;8.910;2023-03-03T15:55:12;59.70;;;21.55;;
30307;SDS011;17114;52.314;8.910;2023-03-03T16:04:00;59.58;;;21.70;;
30307;SDS011;17114;52.314;8.910;2023-03-03T16:23:46;53.60;;;20.10;;
30307;SDS011;17114;52.314;8.910;2023-03-03T16:32:15;58.83;;;21.08;;
30307;SDS011;17114;52.314;8.910;2023-03-03T16:35:25;59.33;;;21.20;;
30307;SDS011;17114;52.314;8.910;2023-03-03T16:40:32;51.92;;;20.35;;
30307;SDS011;17114;52.314;8.910;2023-03-03T16:43:23;55.58;;;21.60;;
30307;SDS011;17114;52.314;8.910;2023-03-03T16:46:21;51.30;;;21.58;;
30307;SDS011;17114;52.314;8.910;2023-03-03T16:49:08;58.20;;;22.17;;
30307;SDS011;17114;52.314;8.910;2023-03-03T16:51:58;60.35;;;24.52;;
30307;SDS011;17114;52.314;8.910;2023-03-03T16:54:31;57.60;;;21.98;;
30307;SDS011;17114;52.314;8.910;2023-03-03T16:57:01;58.25;;;23.25;;
30307;SDS011;17114;52.314;8.910;2023-03-03T17:00:02;58.40;;;21.55;;
30307;SDS011;17114;52.314;8.910;2023-03-03T17:11:03;52.47;;;21.77;;
30307;SDS011;17114;52.314;8.910;2023-03-03T17:36:04;47.03;;;20.17;;
30307;SDS011;17114;52.314;8.910;2023-03-03T17:41:48;41.80;;;18.52;;
30307;SDS011;17114;52.314;8.910;2023-03-03T17:47:12;52.17;;;22.25;;
30307;SDS011;17114;52.314;8.910;2023-03-03T18:12:14;57.20;;;21.98;;
30307;SDS011;17114;52.314;8.910;2023-03-03T18:14:53;39.78;;;17.30;;
30307;SDS011;17114;52.314;8.910;2023-03-03T18:20:32;51.80;;;21.40;;
30307;SDS011;17114;52.314;8.910;2023-03-03T18:23:21;55.25;;;21.95;;
30307;SDS011;17114;52.314;8.910;2023-03-03T18:26:00;55.65;;;22.52;;
30307;SDS011;17114;52.314;8.910;2023-03-03T18:28:35;53.65;;;22.52;;
30307;SDS011;17114;52.314;8.910;2023-03-03T18:31:19;54.10;;;22.15;;
30307;SDS011;17114;52.314;8.910;2023-03-03T18:36:34;46.53;;;21.00;;
30307;SDS011;17114;52.314;8.910;2023-03-03T18:39:04;43.65;;;19.77;;
30307;SDS011;17114;52.314;8.910;2023-03-03T18:41:32;46.53;;;19.60;;
30307;SDS011;17114;52.314;8.910;2023-03-03T18:44:31;47.03;;;19.50;;
30307;SDS011;17114;52.314;8.910;2023-03-03T18:46:58;50.17;;;22.52;;
30307;SDS011;17114;52.314;8.910;2023-03-03T18:52:27;53.60;;;22.23;;
30307;SDS011;17114;52.314;8.910;2023-03-03T18:55:00;46.80;;;19.38;;
30307;SDS011;17114;52.314;8.910;2023-03-03T18:57:34;40.33;;;18.40;;
30307;SDS011;17114;52.314;8.910;2023-03-03T19:00:11;43.03;;;19.08;;
30307;SDS011;17114;52.314;8.910;2023-03-03T19:02:50;50.22;;;19.80;;
30307;SDS011;17114;52.314;8.910;2023-03-03T19:05:23;58.45;;;22.75;;
30307;SDS011;17114;52.314;8.910;2023-03-03T19:10:40;49.95;;;20.48;;
30307;SDS011;17114;52.314;8.910;2023-03-03T19:16:05;32.40;;;14.60;;
30307;SDS011;17114;52.314;8.910;2023-03-03T19:18:56;34.42;;;17.48;;
30307;SDS011;17114;52.314;8.910;2023-03-03T19:23:58;36.67;;;16.48;;
30307;SDS011;17114;52.314;8.910;2023-03-03T19:26:46;36.05;;;16.45;;
30307;SDS011;17114;52.314;8.910;2023-03-03T19:40:41;17.33;;;8.35;;
30307;SDS011;17114;52.314;8.910;2023-03-03T19:51:09;12.27;;;7.32;;
30307;SDS011;17114;52.314;8.910;2023-03-03T19:56:43;11.38;;;7.60;;
30307;SDS011;17114;52.314;8.910;2023-03-03T20:04:48;15.45;;;9.10;;
30307;SDS011;17114;52.314;8.910;2023-03-03T20:07:48;13.93;;;6.47;;
30307;SDS011;17114;52.314;8.910;2023-03-03T20:10:38;11.25;;;5.97;;
30307;SDS011;17114;52.314;8.910;2023-03-03T20:29:46;11.05;;;4.60;;
30307;SDS011;17114;52.314;8.910;2023-03-03T20:37:47;15.50;;;6.35;;
30307;SDS011;17114;52.314;8.910;2023-03-03T20:40:20;17.33;;;5.82;;
30307;SDS011;17114;52.314;8.910;2023-03-03T20:45:45;18.65;;;7.50;;
30307;SDS011;17114;52.314;8.910;2023-03-03T20:51:02;26.55;;;10.80;;
30307;SDS011;17114;52.314;8.910;2023-03-03T20:53:58;15.80;;;6.80;;
30307;SDS011;17114;52.314;8.910;2023-03-03T20:59:31;15.70;;;4.70;;
30307;SDS011;17114;52.314;8.910;2023-03-03T21:04:37;14.02;;;5.28;;
30307;SDS011;17114;52.314;8.910;2023-03-03T21:07:04;18.15;;;5.45;;
30307;SDS011;17114;52.314;8.910;2023-03-03T21:12:00;15.95;;;5.00;;
30307;SDS011;17114;52.314;8.910;2023-03-03T21:14:36;20.00;;;4.80;;
30307;SDS011;17114;52.314;8.910;2023-03-03T21:19:52;18.17;;;5.82;;
30307;SDS011;17114;52.314;8.910;2023-03-03T21:22:19;22.85;;;5.03;;
30307;SDS011;17114;52.314;8.910;2023-03-03T21:27:23;19.65;;;4.78;;
30307;SDS011;17114;52.314;8.910;2023-03-03T21:30:16;27.00;;;5.65;;
30307;SDS011;17114;52.314;8.910;2023-03-03T21:32:43;18.63;;;4.70;;
30307;SDS011;17114;52.314;8.910;2023-03-03T21:35:14;23.67;;;5.40;;
30307;SDS011;17114;52.314;8.910;2023-03-03T21:40:19;22.45;;;4.55;;
30307;SDS011;17114;52.314;8.910;2023-03-03T21:42:51;22.92;;;4.80;;
30307;SDS011;17114;52.314;8.910;2023-03-03T21:45:20;22.60;;;4.90;;
30307;SDS011;17114;52.314;8.910;2023-03-03T21:47:47;30.98;;;5.13;;
30307;SDS011;17114;52.314;8.910;2023-03-03T21:50:14;25.50;;;5.30;;